Time;durP1;ratioP1;P1;durP2;ratioP2;P2;SDS_P1;SDS_P2;PMS_P1;PMS_P2;Temp;Humidity;BMP_temperature;BMP_pressure;BME280_temperature;BME280_humidity;BME280_pressure;Samples;Min_cycle;Max_cycle;Signal;HPM_P1;HPM_P2
2023/01/07 00:02:22;;;;;;;;;;;16.40;99.90;;;;;;5019091;28;19917;-87
2023/01/07 00:04:49;;;;;;;;;;;16.40;99.90;;;;;;5018638;28;19909;-87
2023/01/07 00:07:15;;;;;;;;;;;16.30;99.90;;;;;;5017342;28;19924;-86
2023/01/07 00:09:48;;;;;;;;;;;16.30;99.90;;;;;;5017152;28;19909;-87
2023/01/07 00:12:13;;;;;;;;;;;16.30;99.90;;;;;;5014862;28;19922;-87
2023/01/07 00:14:39;;;;;;;;;;;16.30;99.90;;;;;;5017311;28;19914;-87
2023/01/07 00:17:04;;;;;;;;;;;16.30;99.90;;;;;;5016452;28;19913;-87
2023/01/07 00:19:41;;;;;;;;;;;16.30;99.90;;;;;;5016288;28;19959;-87
2023/01/07 00:22:07;;;;;;;;;;;16.30;99.90;;;;;;5014911;28;19909;-87
2023/01/07 00:24:33;;;;;;;;;;;16.30;99.90;;;;;;5014150;28;19952;-87
2023/01/07 00:26:59;;;;;;;;;;;16.30;99.90;;;;;;5015270;28;20026;-87
2023/01/07 00:29:24;;;;;;;;;;;16.30;99.90;;;;;;5016143;28;19921;-87
2023/01/07 00:31:50;;;;;;;;;;;16.40;99.90;;;;;;5015825;28;20272;-87
2023/01/07 00:34:16;;;;;;;;;;;16.40;99.90;;;;;;5015028;28;19917;-87
2023/01/07 00:36:43;;;;;;;;;;;16.30;99.90;;;;;;5015054;28;20145;-86
2023/01/07 00:39:11;;;;;;;;;;;16.40;99.90;;;;;;5015716;28;19995;-86
2023/01/07 00:41:37;;;;;;;;;;;16.40;99.90;;;;;;5033451;28;20268;-86
2023/01/07 00:44:04;;;;;;;;;;;16.40;99.90;;;;;;5034146;28;19910;-86
2023/01/07 00:46:29;;;;;;;;;;;16.40;99.90;;;;;;5017834;28;20211;-87
2023/01/07 00:48:55;;;;;;;;;;;16.40;99.90;;;;;;5018377;28;20264;-87
2023/01/07 00:51:21;;;;;;;;;;;16.40;99.90;;;;;;5050522;28;20279;-87
2023/01/07 00:53:46;;;;;;;;;;;16.40;99.90;;;;;;5017030;28;19921;-87
2023/01/07 00:56:22;;;;;;;;;;;16.40;99.90;;;;;;5016741;28;20313;-86
2023/01/07 00:58:47;;;;;;;;;;;16.40;99.90;;;;;;5016133;28;19917;-86
2023/01/07 01:01:13;;;;;;;;;;;16.40;99.90;;;;;;5015063;28;19913;-86
2023/01/07 01:03:39;;;;;;;;;;;16.40;99.90;;;;;;5014593;28;19967;-87
2023/01/07 01:06:06;;;;;;;;;;;16.40;99.90;;;;;;5015257;28;19917;-86
2023/01/07 01:08:32;;;;;;;;;;;16.40;99.90;;;;;;5014179;28;19983;-87
2023/01/07 01:11:05;;;;;;;;;;;16.40;99.90;;;;;;5015410;28;20191;-87
2023/01/07 01:13:31;;;;;;;;;;;16.40;99.90;;;;;;5014071;28;19975;-87
2023/01/07 01:15:57;;;;;;;;;;;16.40;99.90;;;;;;5032572;28;19917;-86
2023/01/07 01:18:22;;;;;;;;;;;16.40;99.90;;;;;;5034157;28;19920;-86
2023/01/07 01:20:48;;;;;;;;;;;16.40;99.90;;;;;;5016831;28;20184;-86
2023/01/07 01:23:13;;;;;;;;;;;16.40;99.90;;;;;;5053022;28;20016;-87
2023/01/07 01:25:39;;;;;;;;;;;16.30;99.90;;;;;;5020773;28;19909;-87
2023/01/07 01:28:05;;;;;;;;;;;16.30;99.90;;;;;;5021235;28;20301;-87
2023/01/07 01:30:30;;;;;;;;;;;16.40;99.90;;;;;;5022073;28;19964;-86
2023/01/07 01:32:56;;;;;;;;;;;16.30;99.90;;;;;;5020782;28;20234;-86
2023/01/07 01:35:22;;;;;;;;;;;16.30;99.90;;;;;;5020469;28;19921;-86
2023/01/07 01:37:47;;;;;;;;;;;16.30;99.90;;;;;;5010158;28;19921;-85
2023/01/07 01:40:13;;;;;;;;;;;16.30;99.90;;;;;;5019689;28;19936;-87
2023/01/07 01:42:39;;;;;;;;;;;16.30;99.90;;;;;;5019091;28;19939;-86
2023/01/07 01:45:05;;;;;;;;;;;16.30;99.90;;;;;;5019222;28;19966;-86
2023/01/07 01:47:42;;;;;;;;;;;16.30;99.90;;;;;;5018142;28;20007;-86
2023/01/07 01:50:11;;;;;;;;;;;16.30;99.90;;;;;;5018825;28;19909;-86
2023/01/07 01:52:38;;;;;;;;;;;16.30;99.90;;;;;;5051549;28;20010;-86
2023/01/07 01:55:05;;;;;;;;;;;16.30;99.90;;;;;;5019875;28;19913;-86
2023/01/07 01:57:33;;;;;;;;;;;16.30;99.90;;;;;;5020598;28;19924;-86
2023/01/07 01:59:59;;;;;;;;;;;16.30;99.90;;;;;;5020213;28;19909;-86
2023/01/07 02:02:31;;;;;;;;;;;16.30;99.90;;;;;;5020300;28;20244;-86
2023/01/07 02:04:57;;;;;;;;;;;16.30;99.90;;;;;;5020455;28;19933;-86
2023/01/07 02:07:23;;;;;;;;;;;16.30;99.90;;;;;;5053503;28;19909;-86
2023/01/07 02:09:59;;;;;;;;;;;16.30;99.90;;;;;;5020744;28;19909;-86
2023/01/07 02:12:41;;;;;;;;;;;16.20;99.90;;;;;;5021113;28;19924;-86
2023/01/07 02:15:22;;;;;;;;;;;16.30;99.90;;;;;;5021093;28;19992;-86
2023/01/07 02:18:04;;;;;;;;;;;16.30;99.90;;;;;;5036830;28;20264;-86
2023/01/07 02:20:48;;;;;;;;;;;16.20;99.90;;;;;;5035130;28;20283;-86
2023/01/07 02:23:30;;;;;;;;;;;16.30;99.90;;;;;;5052372;28;20309;-86
2023/01/07 02:26:07;;;;;;;;;;;16.30;99.90;;;;;;5036272;28;19976;-86
2023/01/07 02:28:38;;;;;;;;;;;16.20;99.90;;;;;;5036468;28;20495;-86
2023/01/07 02:31:13;;;;;;;;;;;16.20;99.90;;;;;;5052607;28;19991;-86
2023/01/07 02:33:44;;;;;;;;;;;16.20;99.90;;;;;;5050321;28;19950;-86
2023/01/07 02:36:19;;;;;;;;;;;16.20;99.90;;;;;;5051496;28;19963;-87
2023/01/07 02:39:03;;;;;;;;;;;16.20;99.90;;;;;;5019739;28;19928;-86
2023/01/07 02:41:38;;;;;;;;;;;16.20;99.90;;;;;;5036996;28;19959;-86
2023/01/07 02:44:10;;;;;;;;;;;16.20;99.90;;;;;;5020536;28;19919;-86
2023/01/07 02:46:42;;;;;;;;;;;16.20;99.90;;;;;;5036786;28;19941;-86
2023/01/07 02:49:09;;;;;;;;;;;16.20;99.90;;;;;;5019738;28;19910;-86
2023/01/07 02:51:35;;;;;;;;;;;16.20;99.90;;;;;;5019641;28;20179;-86
2023/01/07 02:54:01;;;;;;;;;;;16.20;99.90;;;;;;5019241;28;19912;-86
2023/01/07 02:56:45;;;;;;;;;;;16.20;99.90;;;;;;5018036;28;19914;-86
2023/01/07 02:59:16;;;;;;;;;;;16.20;99.90;;;;;;5035575;28;20117;-86
2023/01/07 03:02:01;;;;;;;;;;;16.20;99.90;;;;;;5019304;28;19921;-86
2023/01/07 03:04:34;;;;;;;;;;;16.20;99.90;;;;;;5017847;28;19910;-86
2023/01/07 03:07:03;;;;;;;;;;;16.10;99.90;;;;;;5018632;28;19916;-86
2023/01/07 03:09:47;;;;;;;;;;;16.10;99.90;;;;;;5050955;28;19955;-86
2023/01/07 03:12:19;;;;;;;;;;;16.10;99.90;;;;;;5051539;28;19986;-86
2023/01/07 03:14:44;;;;;;;;;;;16.10;99.90;;;;;;5049222;28;20044;-86
2023/01/07 03:17:12;;;;;;;;;;;16.10;99.90;;;;;;5034639;28;20012;-86
2023/01/07 03:19:40;;;;;;;;;;;16.10;99.90;;;;;;5018225;28;19920;-85
2023/01/07 03:22:07;;;;;;;;;;;16.10;99.90;;;;;;5051075;28;19909;-86
2023/01/07 03:24:32;;;;;;;;;;;16.10;99.90;;;;;;5017948;28;19940;-86
2023/01/07 03:26:59;;;;;;;;;;;16.10;99.90;;;;;;5019046;28;20277;-87
2023/01/07 03:29:26;;;;;;;;;;;16.10;99.90;;;;;;5019318;28;19909;-86
2023/01/07 03:32:07;;;;;;;;;;;16.10;99.90;;;;;;5019230;28;19909;-86
2023/01/07 03:34:33;;;;;;;;;;;16.10;99.90;;;;;;5018418;28;19927;-86
2023/01/07 03:37:01;;;;;;;;;;;16.10;99.90;;;;;;5034198;28;19995;-85
2023/01/07 03:39:28;;;;;;;;;;;16.10;99.90;;;;;;5016859;28;19949;-86
2023/01/07 03:44:38;;;;;;;;;;;16.00;99.90;;;;;;5033496;28;19935;-86
2023/01/07 03:47:04;;;;;;;;;;;16.10;99.90;;;;;;5017968;28;20355;-86
2023/01/07 03:49:31;;;;;;;;;;;16.10;99.90;;;;;;5018725;28;19978;-86
2023/01/07 03:51:56;;;;;;;;;;;16.00;99.90;;;;;;5019394;28;19999;-86
2023/01/07 03:54:25;;;;;;;;;;;16.00;99.90;;;;;;5018297;28;20011;-86
2023/01/07 03:56:51;;;;;;;;;;;16.00;99.90;;;;;;5016592;28;20154;-86
2023/01/07 03:59:16;;;;;;;;;;;16.00;99.90;;;;;;5016684;28;20195;-85
2023/01/07 04:01:42;;;;;;;;;;;16.00;99.90;;;;;;5015386;28;19916;-86
2023/01/07 04:04:07;;;;;;;;;;;16.00;99.90;;;;;;5032464;28;19913;-86
2023/01/07 04:06:33;;;;;;;;;;;16.00;99.90;;;;;;5015983;28;19909;-86
2023/01/07 04:08:59;;;;;;;;;;;16.00;99.90;;;;;;5033484;28;19994;-86
2023/01/07 04:11:24;;;;;;;;;;;16.00;99.90;;;;;;5024750;28;19925;-86
2023/01/07 04:13:50;;;;;;;;;;;16.00;99.90;;;;;;5017229;28;19909;-86
2023/01/07 04:16:15;;;;;;;;;;;16.00;99.90;;;;;;5017815;28;19909;-86
2023/01/07 04:18:41;;;;;;;;;;;16.00;99.90;;;;;;5015982;28;20242;-86
2023/01/07 04:21:06;;;;;;;;;;;16.00;99.90;;;;;;5017038;28;19917;-86
2023/01/07 04:23:32;;;;;;;;;;;16.00;99.90;;;;;;5017059;28;19974;-86
2023/01/07 04:26:11;;;;;;;;;;;15.90;99.90;;;;;;5017343;28;19913;-86
2023/01/07 04:28:37;;;;;;;;;;;15.90;99.90;;;;;;5016543;28;19921;-86
2023/01/07 04:31:02;;;;;;;;;;;15.90;99.90;;;;;;5017464;28;19917;-86
2023/01/07 04:33:28;;;;;;;;;;;15.90;99.90;;;;;;5016544;28;19923;-86
2023/01/07 04:35:56;;;;;;;;;;;15.90;99.90;;;;;;5017674;28;20787;-86
2023/01/07 04:38:22;;;;;;;;;;;15.90;99.90;;;;;;5049624;28;20267;-86
2023/01/07 04:40:47;;;;;;;;;;;15.90;99.90;;;;;;5033756;28;19915;-86
2023/01/07 04:43:13;;;;;;;;;;;15.90;99.90;;;;;;5016009;28;19913;-86
2023/01/07 04:45:38;;;;;;;;;;;15.90;99.90;;;;;;5016972;28;20283;-86
2023/01/07 04:48:04;;;;;;;;;;;15.90;99.90;;;;;;5017166;28;20279;-86
2023/01/07 04:50:30;;;;;;;;;;;15.90;99.90;;;;;;5016759;28;20007;-86
2023/01/07 04:52:55;;;;;;;;;;;15.90;99.90;;;;;;5016566;28;19936;-86
2023/01/07 04:55:21;;;;;;;;;;;15.80;99.90;;;;;;5016079;28;20271;-86
2023/01/07 04:57:46;;;;;;;;;;;15.80;99.90;;;;;;5036263;28;19921;-86
2023/01/07 05:00:13;;;;;;;;;;;15.80;99.90;;;;;;5003460;28;19913;-86
2023/01/07 05:02:39;;;;;;;;;;;15.80;99.90;;;;;;5036427;28;19920;-86
2023/01/07 05:05:05;;;;;;;;;;;15.80;99.90;;;;;;5020143;28;20179;-86
2023/01/07 05:07:30;;;;;;;;;;;15.80;99.90;;;;;;5020003;28;19917;-86
2023/01/07 05:09:57;;;;;;;;;;;15.80;99.90;;;;;;5037439;28;19920;-86
2023/01/07 05:12:23;;;;;;;;;;;15.80;99.90;;;;;;5037975;28;20260;-86
2023/01/07 05:14:48;;;;;;;;;;;15.80;99.90;;;;;;5020243;28;19909;-86
2023/01/07 05:17:14;;;;;;;;;;;15.70;99.90;;;;;;5020679;28;20165;-86
2023/01/07 05:19:40;;;;;;;;;;;15.70;99.90;;;;;;5020727;28;19916;-86
2023/01/07 05:22:05;;;;;;;;;;;15.70;99.90;;;;;;5021819;28;19909;-86
2023/01/07 05:24:30;;;;;;;;;;;15.70;99.90;;;;;;5038635;28;19909;-86
2023/01/07 05:26:56;;;;;;;;;;;15.70;99.90;;;;;;5038942;28;19916;-86
2023/01/07 05:29:22;;;;;;;;;;;15.70;99.90;;;;;;5022023;28;19936;-86
2023/01/07 05:31:47;;;;;;;;;;;15.70;99.90;;;;;;5037669;28;19909;-86
2023/01/07 05:34:13;;;;;;;;;;;15.60;99.90;;;;;;5039225;28;20191;-86
2023/01/07 05:36:38;;;;;;;;;;;15.60;99.90;;;;;;5021336;28;19916;-86
2023/01/07 05:39:17;;;;;;;;;;;15.80;99.90;;;;;;5021789;28;20279;-86
2023/01/07 05:41:43;;;;;;;;;;;16.80;98.20;;;;;;5020990;28;19996;-86
2023/01/07 05:44:08;;;;;;;;;;;17.50;96.00;;;;;;5021769;28;20269;-86
2023/01/07 05:46:34;;;;;;;;;;;17.80;95.10;;;;;;5019827;28;20096;-86
2023/01/07 05:49:00;;;;;;;;;;;18.00;94.50;;;;;;5021632;28;20011;-86
2023/01/07 05:51:35;;;;;;;;;;;18.10;93.80;;;;;;5021775;28;19909;-86
2023/01/07 05:54:00;;;;;;;;;;;18.30;93.40;;;;;;5021709;28;19909;-86
2023/01/07 05:56:26;;;;;;;;;;;18.40;92.80;;;;;;5038045;28;19967;-86
2023/01/07 05:58:52;;;;;;;;;;;18.60;92.40;;;;;;5021427;28;20199;-86
2023/01/07 06:01:17;;;;;;;;;;;18.60;91.90;;;;;;5020339;28;19921;-86
2023/01/07 06:03:43;;;;;;;;;;;18.70;91.70;;;;;;5020916;28;19920;-86
2023/01/07 06:06:08;;;;;;;;;;;18.80;91.40;;;;;;5021413;28;20203;-86
2023/01/07 06:08:35;;;;;;;;;;;18.80;91.20;;;;;;5021064;28;19917;-86
2023/01/07 06:11:00;;;;;;;;;;;18.80;91.00;;;;;;5038326;28;19943;-86
2023/01/07 06:13:27;;;;;;;;;;;18.80;91.00;;;;;;5020342;28;19910;-86
2023/01/07 06:15:58;;;;;;;;;;;18.70;91.10;;;;;;5037801;28;19987;-86
2023/01/07 06:18:23;;;;;;;;;;;18.70;91.20;;;;;;5037681;28;19994;-86
2023/01/07 06:20:49;;;;;;;;;;;18.60;91.40;;;;;;5037094;28;20183;-86
2023/01/07 06:23:14;;;;;;;;;;;18.50;91.60;;;;;;5018628;28;19909;-86
2023/01/07 06:25:40;;;;;;;;;;;18.40;91.90;;;;;;5019845;28;19920;-86
2023/01/07 06:28:06;;;;;;;;;;;18.30;92.10;;;;;;5019678;28;19920;-86
2023/01/07 06:30:31;;;;;;;;;;;18.30;92.40;;;;;;5020495;28;19913;-85
2023/01/07 06:32:57;;;;;;;;;;;18.20;92.60;;;;;;5052682;28;19925;-86
2023/01/07 06:35:22;;;;;;;;;;;18.10;92.80;;;;;;5019588;28;19919;-86
2023/01/07 06:37:48;;;;;;;;;;;18.00;93.10;;;;;;5017750;28;19952;-86
2023/01/07 06:40:14;;;;;;;;;;;17.90;93.30;;;;;;5018059;28;19917;-86
2023/01/07 06:42:41;;;;;;;;;;;17.80;93.60;;;;;;5012088;28;20282;-86
2023/01/07 06:45:06;;;;;;;;;;;17.70;93.80;;;;;;5013060;28;19948;-86
2023/01/07 06:47:33;;;;;;;;;;;17.70;94.10;;;;;;5034578;28;19975;-86
2023/01/07 06:49:58;;;;;;;;;;;17.60;94.30;;;;;;5034924;28;20169;-86
2023/01/07 06:52:24;;;;;;;;;;;17.50;94.50;;;;;;5017658;28;20264;-86
2023/01/07 06:54:49;;;;;;;;;;;17.40;94.80;;;;;;5017254;28;19915;-86
2023/01/07 06:57:15;;;;;;;;;;;17.30;95.00;;;;;;5017477;28;20001;-86
2023/01/07 06:59:41;;;;;;;;;;;17.20;95.30;;;;;;5017121;28;20243;-86
2023/01/07 07:02:06;;;;;;;;;;;17.10;95.60;;;;;;5050879;28;19919;-86
2023/01/07 07:04:32;;;;;;;;;;;17.10;95.80;;;;;;5034976;28;20284;-86
2023/01/07 07:06:57;;;;;;;;;;;16.90;96.10;;;;;;5017700;28;19967;-86
2023/01/07 07:09:23;;;;;;;;;;;16.90;96.30;;;;;;5036167;28;20203;-86
2023/01/07 07:11:48;;;;;;;;;;;16.80;96.50;;;;;;5018184;28;20283;-86
2023/01/07 07:14:14;;;;;;;;;;;16.70;96.60;;;;;;5018328;28;20128;-86
2023/01/07 07:16:40;;;;;;;;;;;16.70;96.70;;;;;;5018519;28;20197;-86
2023/01/07 07:19:05;;;;;;;;;;;16.70;96.70;;;;;;5017538;28;19920;-86
2023/01/07 07:21:31;;;;;;;;;;;16.80;96.70;;;;;;5018034;28;20177;-86
2023/01/07 07:23:56;;;;;;;;;;;16.80;96.60;;;;;;5017508;28;20355;-86
2023/01/07 07:26:22;;;;;;;;;;;16.90;96.50;;;;;;5017648;28;19909;-85
2023/01/07 07:28:48;;;;;;;;;;;16.90;96.30;;;;;;5049897;28;19991;-86
2023/01/07 07:31:13;;;;;;;;;;;17.00;96.10;;;;;;5050941;28;20183;-86
2023/01/07 07:33:39;;;;;;;;;;;17.10;95.70;;;;;;5016271;28;20034;-86
2023/01/07 07:36:05;;;;;;;;;;;17.30;95.50;;;;;;5016330;28;19971;-86
2023/01/07 07:38:30;;;;;;;;;;;17.30;95.20;;;;;;5016422;28;19913;-86
2023/01/07 07:40:56;;;;;;;;;;;17.40;94.90;;;;;;5015995;28;20186;-86
2023/01/07 07:43:21;;;;;;;;;;;17.50;94.50;;;;;;5016451;28;20169;-86
2023/01/07 07:45:47;;;;;;;;;;;17.60;94.10;;;;;;5016446;28;20251;-86
2023/01/07 07:48:14;;;;;;;;;;;17.70;93.90;;;;;;5016685;28;19967;-86
2023/01/07 07:50:39;;;;;;;;;;;17.80;93.60;;;;;;5024830;28;19921;-86
2023/01/07 07:53:14;;;;;;;;;;;17.80;93.50;;;;;;5017864;28;19920;-86
2023/01/07 07:55:40;;;;;;;;;;;17.80;93.40;;;;;;5016374;28;20173;-86
2023/01/07 07:58:05;;;;;;;;;;;17.80;93.40;;;;;;5017211;28;19913;-86
2023/01/07 08:00:31;;;;;;;;;;;17.70;93.40;;;;;;5051771;28;19909;-85
2023/01/07 08:02:58;;;;;;;;;;;17.70;93.60;;;;;;5018331;28;19917;-86
2023/01/07 08:05:23;;;;;;;;;;;17.60;93.80;;;;;;5018714;28;19920;-86
2023/01/07 08:07:49;;;;;;;;;;;17.50;94.00;;;;;;5017889;28;19909;-86
2023/01/07 08:10:14;;;;;;;;;;;17.40;94.10;;;;;;5019161;28;20306;-86
2023/01/07 08:12:40;;;;;;;;;;;17.40;94.30;;;;;;5018300;28;20276;-86
2023/01/07 08:15:08;;;;;;;;;;;17.30;94.50;;;;;;5023771;28;20483;-86
2023/01/07 08:17:35;;;;;;;;;;;17.30;94.70;;;;;;5007100;28;19982;-86
2023/01/07 08:20:00;;;;;;;;;;;17.20;94.80;;;;;;5016829;28;19915;-86
2023/01/07 08:22:26;;;;;;;;;;;17.20;95.00;;;;;;5032032;28;19999;-86
2023/01/07 08:24:52;;;;;;;;;;;17.10;95.00;;;;;;5015714;28;19909;-86
2023/01/07 08:27:17;;;;;;;;;;;17.10;95.20;;;;;;5014818;28;20489;-87
2023/01/07 08:29:43;;;;;;;;;;;17.00;95.30;;;;;;4998803;28;19974;-86
2023/01/07 08:32:09;;;;;;;;;;;16.90;95.40;;;;;;5034225;28;19916;-86
2023/01/07 08:34:35;;;;;;;;;;;16.90;95.60;;;;;;5020738;28;19917;-86
2023/01/07 08:37:00;;;;;;;;;;;16.90;95.60;;;;;;5020504;28;19913;-86
2023/01/07 08:39:26;;;;;;;;;;;16.90;95.70;;;;;;5020723;28;20191;-86
2023/01/07 08:41:51;;;;;;;;;;;16.80;95.70;;;;;;5021272;28;20000;-86
2023/01/07 08:44:17;;;;;;;;;;;16.80;95.70;;;;;;5020349;28;19909;-86
2023/01/07 08:46:42;;;;;;;;;;;16.80;95.80;;;;;;5019120;28;19909;-86
2023/01/07 08:49:09;;;;;;;;;;;16.80;95.90;;;;;;5019807;28;19914;-85
2023/01/07 08:51:34;;;;;;;;;;;16.80;95.90;;;;;;5019163;28;19996;-85
2023/01/07 08:54:00;;;;;;;;;;;16.80;95.80;;;;;;5019391;28;20031;-86
2023/01/07 08:56:26;;;;;;;;;;;16.90;95.80;;;;;;5051532;28;19909;-85
2023/01/07 08:58:51;;;;;;;;;;;16.90;95.80;;;;;;5017196;28;19913;-85
2023/01/07 09:01:17;;;;;;;;;;;16.90;95.70;;;;;;5017421;28;19917;-85
2023/01/07 09:03:42;;;;;;;;;;;16.90;95.70;;;;;;5018323;28;20074;-85
2023/01/07 09:06:08;;;;;;;;;;;17.00;95.70;;;;;;5018041;28;19909;-86
2023/01/07 09:08:34;;;;;;;;;;;16.90;95.60;;;;;;5018504;28;19955;-86
2023/01/07 09:10:59;;;;;;;;;;;17.00;95.60;;;;;;5018097;28;19967;-86
2023/01/07 09:13:26;;;;;;;;;;;17.00;95.60;;;;;;5017990;28;19913;-86
2023/01/07 09:15:52;;;;;;;;;;;17.00;95.50;;;;;;5018776;28;19959;-86
2023/01/07 09:18:18;;;;;;;;;;;17.10;95.60;;;;;;5036010;28;19953;-86
2023/01/07 09:20:44;;;;;;;;;;;17.10;95.60;;;;;;5035861;28;19917;-86
2023/01/07 09:23:10;;;;;;;;;;;17.10;95.50;;;;;;5017504;28;19910;-85
2023/01/07 09:25:35;;;;;;;;;;;17.10;95.50;;;;;;5035296;28;19917;-85
2023/01/07 09:28:01;;;;;;;;;;;17.10;95.60;;;;;;5018002;28;20194;-86
2023/01/07 09:30:26;;;;;;;;;;;17.20;95.60;;;;;;5016611;28;19931;-86
2023/01/07 09:32:52;;;;;;;;;;;17.20;95.50;;;;;;5049685;28;19971;-86
2023/01/07 09:35:18;;;;;;;;;;;17.20;95.50;;;;;;5016541;28;19991;-86
2023/01/07 09:37:43;;;;;;;;;;;17.20;95.70;;;;;;5018014;28;19913;-86
2023/01/07 09:40:18;;;;;;;;;;;17.20;95.70;;;;;;5014964;28;20409;-86
2023/01/07 09:43:03;;;;;;;;;;;17.20;95.70;;;;;;5016246;28;19913;-86
2023/01/07 09:45:39;;;;;;;;;;;17.30;95.80;;;;;;4995800;28;19909;-86
2023/01/07 09:48:11;;;;;;;;;;;17.30;95.80;;;;;;5013560;28;19959;-86
2023/01/07 09:50:47;;;;;;;;;;;17.30;95.90;;;;;;5014901;28;20011;-86
2023/01/07 09:53:19;;;;;;;;;;;17.30;95.90;;;;;;5017458;28;19909;-86
2023/01/07 09:55:46;;;;;;;;;;;17.30;96.00;;;;;;5017837;28;19913;-86
2023/01/07 09:58:13;;;;;;;;;;;17.30;96.10;;;;;;5017395;28;20264;-86
2023/01/07 10:00:44;;;;;;;;;;;17.20;96.00;;;;;;5051684;28;19909;-86
2023/01/07 10:03:27;;;;;;;;;;;17.20;96.10;;;;;;5049129;28;20022;-86
2023/01/07 10:05:52;;;;;;;;;;;17.30;96.10;;;;;;5016531;28;19909;-86
2023/01/07 10:08:36;;;;;;;;;;;17.30;96.00;;;;;;5049923;28;19910;-86
2023/01/07 10:11:14;;;;;;;;;;;17.30;96.00;;;;;;5012764;28;19909;-86
2023/01/07 10:13:49;;;;;;;;;;;17.30;96.00;;;;;;5014061;28;20003;-86
2023/01/07 10:16:21;;;;;;;;;;;17.30;96.00;;;;;;5012003;28;19913;-86
2023/01/07 10:19:05;;;;;;;;;;;17.40;95.90;;;;;;5030894;28;20230;-86
2023/01/07 10:21:30;;;;;;;;;;;17.40;95.70;;;;;;5034454;28;20269;-86
2023/01/07 10:24:06;;;;;;;;;;;17.50;95.60;;;;;;5045348;28;19940;-86
2023/01/07 10:26:37;;;;;;;;;;;17.60;95.40;;;;;;5013620;28;19920;-86
2023/01/07 10:29:18;;;;;;;;;;;17.70;95.40;;;;;;5016228;28;20294;-86
2023/01/07 10:31:45;;;;;;;;;;;17.70;95.10;;;;;;5048159;28;19949;-86
2023/01/07 10:34:21;;;;;;;;;;;17.80;94.80;;;;;;5045977;28;19924;-87
2023/01/07 10:37:04;;;;;;;;;;;17.80;94.60;;;;;;5013701;28;20315;-86
2023/01/07 10:39:39;;;;;;;;;;;18.00;94.40;;;;;;5014174;28;20151;-87
2023/01/07 10:42:23;;;;;;;;;;;18.00;94.20;;;;;;5011436;28;20260;-86
2023/01/07 10:45:08;;;;;;;;;;;18.00;94.00;;;;;;5029366;28;19917;-86
2023/01/07 10:47:49;;;;;;;;;;;18.00;93.90;;;;;;5044754;28;19909;-86
2023/01/07 10:50:33;;;;;;;;;;;18.10;93.90;;;;;;5030939;28;19937;-86
2023/01/07 10:53:11;;;;;;;;;;;18.00;93.90;;;;;;5047757;28;19920;-86
2023/01/07 10:55:36;;;;;;;;;;;18.00;94.00;;;;;;5044895;28;19952;-86
2023/01/07 10:58:02;;;;;;;;;;;18.00;94.00;;;;;;5048173;28;20018;-87
2023/01/07 11:00:28;;;;;;;;;;;18.00;94.00;;;;;;5011657;28;19909;-86
2023/01/07 11:02:56;;;;;;;;;;;18.00;94.10;;;;;;5029410;28;19909;-86
2023/01/07 11:05:24;;;;;;;;;;;17.90;94.20;;;;;;5011200;28;19913;-87
2023/01/07 11:07:52;;;;;;;;;;;17.90;94.20;;;;;;5011857;28;19916;-87
2023/01/07 11:10:20;;;;;;;;;;;17.80;94.20;;;;;;5010048;28;19908;-87
2023/01/07 11:12:53;;;;;;;;;;;17.90;94.20;;;;;;5043372;28;20184;-87
2023/01/07 11:15:26;;;;;;;;;;;17.90;94.30;;;;;;5010446;28;19979;-88
2023/01/07 11:17:58;;;;;;;;;;;17.80;94.40;;;;;;5011913;28;19924;-87
2023/01/07 11:20:44;;;;;;;;;;;17.90;94.40;;;;;;5028076;28;20074;-87
2023/01/07 11:23:29;;;;;;;;;;;17.90;94.30;;;;;;5012423;28;20143;-87
2023/01/07 11:26:15;;;;;;;;;;;17.90;94.10;;;;;;5052849;28;20082;-87
2023/01/07 11:29:07;;;;;;;;;;;17.90;94.00;;;;;;5029337;28;19909;-87
2023/01/07 11:31:47;;;;;;;;;;;18.00;93.80;;;;;;5011129;28;20280;-87
2023/01/07 11:34:24;;;;;;;;;;;18.10;93.40;;;;;;5012079;28;20078;-87
2023/01/07 11:36:50;;;;;;;;;;;18.30;92.80;;;;;;5013275;28;19909;-87
2023/01/07 11:39:20;;;;;;;;;;;18.40;92.40;;;;;;5032106;28;19936;-87
2023/01/07 11:41:54;;;;;;;;;;;18.50;91.90;;;;;;5029052;28;20003;-87
2023/01/07 11:44:19;;;;;;;;;;;18.50;91.50;;;;;;5012517;28;19970;-87
2023/01/07 11:46:45;;;;;;;;;;;18.60;91.20;;;;;;5045463;28;19917;-87
2023/01/07 11:49:40;;;;;;;;;;;18.60;91.00;;;;;;5045263;28;19920;-87
2023/01/07 11:52:15;;;;;;;;;;;18.60;90.90;;;;;;5002222;28;19964;-87
2023/01/07 11:54:41;;;;;;;;;;;18.60;91.00;;;;;;5011587;28;19974;-87
2023/01/07 11:57:19;;;;;;;;;;;18.50;90.80;;;;;;5010329;28;19913;-87
2023/01/07 11:59:45;;;;;;;;;;;18.50;90.70;;;;;;5009503;28;19910;-87
2023/01/07 12:02:22;;;;;;;;;;;18.50;90.80;;;;;;5010503;28;19919;-87
2023/01/07 12:04:47;;;;;;;;;;;18.40;90.90;;;;;;5012647;28;19921;-87
2023/01/07 12:07:14;;;;;;;;;;;18.40;90.90;;;;;;5011927;28;19910;-87
2023/01/07 12:09:40;;;;;;;;;;;18.40;91.10;;;;;;5043623;28;19909;-87
2023/01/07 12:15:15;;;;;;;;;;;18.20;91.10;;;;;;5027983;28;20052;-87
2023/01/07 12:17:43;;;;;;;;;;;18.20;91.30;;;;;;5016080;28;19916;-88
2023/01/07 12:20:11;;;;;;;;;;;18.10;91.30;;;;;;5033209;28;19939;-86
2023/01/07 12:22:46;;;;;;;;;;;18.10;91.40;;;;;;5043543;28;19936;-87
2023/01/07 12:25:18;;;;;;;;;;;18.00;91.50;;;;;;5044536;28;20929;-87
2023/01/07 12:27:49;;;;;;;;;;;17.90;91.90;;;;;;5046012;28;19944;-87
2023/01/07 12:30:34;;;;;;;;;;;17.80;91.90;;;;;;5045283;28;19936;-87
2023/01/07 12:33:09;;;;;;;;;;;17.80;92.20;;;;;;5012117;28;20139;-87
2023/01/07 12:35:37;;;;;;;;;;;17.70;92.40;;;;;;5010086;28;19971;-86
2023/01/07 12:38:03;;;;;;;;;;;17.70;92.50;;;;;;5007433;28;20139;-87
2023/01/07 12:40:31;;;;;;;;;;;17.60;92.70;;;;;;5042330;28;19996;-87
2023/01/07 12:43:03;;;;;;;;;;;17.60;92.80;;;;;;5011396;28;19955;-87
2023/01/07 12:45:35;;;;;;;;;;;17.50;92.80;;;;;;5028453;28;19917;-88
2023/01/07 12:48:03;;;;;;;;;;;17.50;92.80;;;;;;5028147;28;20003;-87
2023/01/07 12:50:33;;;;;;;;;;;17.50;92.90;;;;;;5045788;28;20219;-87
2023/01/07 12:52:59;;;;;;;;;;;17.50;93.00;;;;;;5028726;28;19913;-88
2023/01/07 12:55:27;;;;;;;;;;;17.50;93.00;;;;;;5029417;28;19942;-87
2023/01/07 12:57:56;;;;;;;;;;;17.40;92.80;;;;;;5027933;28;19920;-87
2023/01/07 13:00:26;;;;;;;;;;;17.40;92.80;;;;;;5044495;28;20085;-87
2023/01/07 13:02:57;;;;;;;;;;;17.40;93.00;;;;;;5044070;28;20082;-86
2023/01/07 13:05:24;;;;;;;;;;;17.40;93.00;;;;;;5008895;28;19910;-88
2023/01/07 13:07:53;;;;;;;;;;;17.50;93.10;;;;;;5010456;28;20207;-87
2023/01/07 13:10:25;;;;;;;;;;;17.50;92.90;;;;;;5010862;28;19920;-87
2023/01/07 13:12:55;;;;;;;;;;;17.50;92.60;;;;;;5028198;28;20257;-88
2023/01/07 13:15:28;;;;;;;;;;;17.60;92.40;;;;;;5012357;28;20237;-87
2023/01/07 13:17:55;;;;;;;;;;;17.60;92.20;;;;;;5030162;28;19924;-87
2023/01/07 13:20:31;;;;;;;;;;;17.60;92.20;;;;;;5014922;28;19909;-88
2023/01/07 13:22:57;;;;;;;;;;;17.60;92.00;;;;;;5014020;28;19927;-87
2023/01/07 13:25:31;;;;;;;;;;;17.60;91.70;;;;;;5031217;28;19944;-87
2023/01/07 13:28:03;;;;;;;;;;;17.60;91.90;;;;;;5046715;28;19913;-87
2023/01/07 13:30:55;;;;;;;;;;;17.60;92.10;;;;;;5032182;28;20191;-87
2023/01/07 13:33:20;;;;;;;;;;;17.70;91.90;;;;;;5012306;28;20028;-88
2023/01/07 13:35:58;;;;;;;;;;;17.70;91.90;;;;;;5046521;28;20162;-87
2023/01/07 13:38:42;;;;;;;;;;;17.70;91.90;;;;;;5027371;28;19925;-87
2023/01/07 13:41:07;;;;;;;;;;;17.60;91.90;;;;;;5042694;28;19920;-87
2023/01/07 13:43:36;;;;;;;;;;;17.60;91.90;;;;;;5042959;28;20230;-87
2023/01/07 13:46:03;;;;;;;;;;;17.60;92.00;;;;;;5045488;28;19920;-87
2023/01/07 13:48:29;;;;;;;;;;;17.60;92.00;;;;;;5013631;28;20184;-87
2023/01/07 13:51:02;;;;;;;;;;;17.60;92.00;;;;;;5013557;28;20126;-87
2023/01/07 13:53:30;;;;;;;;;;;17.50;92.10;;;;;;5013645;28;19979;-87
2023/01/07 13:56:15;;;;;;;;;;;17.50;92.30;;;;;;5031161;28;20141;-87
2023/01/07 13:58:59;;;;;;;;;;;17.40;92.50;;;;;;5044584;28;20156;-87
2023/01/07 14:01:32;;;;;;;;;;;17.40;92.50;;;;;;5012326;28;20168;-88
2023/01/07 14:03:57;;;;;;;;;;;17.40;92.50;;;;;;5048065;28;19936;-87
2023/01/07 14:06:26;;;;;;;;;;;17.30;92.50;;;;;;5046393;28;19916;-88
2023/01/07 14:08:56;;;;;;;;;;;17.30;92.60;;;;;;5040508;28;20000;-87
2023/01/07 14:11:51;;;;;;;;;;;17.30;92.60;;;;;;5036193;28;20202;-87
2023/01/07 14:14:27;;;;;;;;;;;17.20;92.50;;;;;;4984483;28;19914;-87
2023/01/07 14:16:53;;;;;;;;;;;17.20;92.90;;;;;;5022069;28;19920;-87
2023/01/07 14:19:38;;;;;;;;;;;17.10;93.10;;;;;;5037813;28;19909;-87
2023/01/07 14:22:26;;;;;;;;;;;17.10;93.00;;;;;;5038803;28;19920;-87
2023/01/07 14:24:54;;;;;;;;;;;17.10;93.10;;;;;;5019104;28;20455;-88
2023/01/07 14:27:50;;;;;;;;;;;17.00;93.00;;;;;;5023516;28;19908;-88
2023/01/07 14:30:19;;;;;;;;;;;17.00;92.90;;;;;;4998768;28;19949;-88
2023/01/07 14:32:45;;;;;;;;;;;17.00;93.10;;;;;;5037730;28;20145;-87
2023/01/07 14:35:11;;;;;;;;;;;16.90;93.40;;;;;;5034484;28;20310;-87